sensor_id;sensor_type;location;lat;lon;timestamp;P1;durP1;ratioP1;P2;durP2;ratioP2
20727;SDS011;10525;50.154;8.198;2022-07-23T00:01:59;9.40;;;6.25;;
20727;SDS011;10525;50.154;8.198;2022-07-23T00:04:27;7.50;;;6.05;;
20727;SDS011;10525;50.154;8.198;2022-07-23T00:06:54;6.45;;;5.75;;
20727;SDS011;10525;50.154;8.198;2022-07-23T00:09:21;7.43;;;5.57;;
20727;SDS011;10525;50.154;8.198;2022-07-23T00:11:47;6.78;;;6.13;;
20727;SDS011;10525;50.154;8.198;2022-07-23T00:14:14;6.40;;;5.78;;
20727;SDS011;10525;50.154;8.198;2022-07-23T00:16:41;11.90;;;5.97;;
20727;SDS011;10525;50.154;8.198;2022-07-23T00:19:08;8.73;;;5.60;;
20727;SDS011;10525;50.154;8.198;2022-07-23T00:21:36;6.05;;;5.50;;
20727;SDS011;10525;50.154;8.198;2022-07-23T00:24:04;6.65;;;5.93;;
20727;SDS011;10525;50.154;8.198;2022-07-23T00:26:31;6.38;;;5.70;;
20727;SDS011;10525;50.154;8.198;2022-07-23T00:28:58;7.40;;;6.22;;
20727;SDS011;10525;50.154;8.198;2022-07-23T00:31:25;7.07;;;6.38;;
20727;SDS011;10525;50.154;8.198;2022-07-23T00:33:52;9.13;;;6.20;;
20727;SDS011;10525;50.154;8.198;2022-07-23T00:36:21;6.45;;;5.50;;
20727;SDS011;10525;50.154;8.198;2022-07-23T00:38:49;16.80;;;7.15;;
20727;SDS011;10525;50.154;8.198;2022-07-23T00:41:16;7.55;;;6.05;;
20727;SDS011;10525;50.154;8.198;2022-07-23T00:43:43;6.20;;;5.70;;
20727;SDS011;10525;50.154;8.198;2022-07-23T00:46:10;8.80;;;6.45;;
20727;SDS011;10525;50.154;8.198;2022-07-23T00:48:37;10.38;;;5.90;;
20727;SDS011;10525;50.154;8.198;2022-07-23T00:51:04;6.68;;;6.00;;
20727;SDS011;10525;50.154;8.198;2022-07-23T00:53:31;8.40;;;6.00;;
20727;SDS011;10525;50.154;8.198;2022-07-23T00:55:59;11.98;;;7.22;;
20727;SDS011;10525;50.154;8.198;2022-07-23T00:58:26;8.85;;;6.70;;
20727;SDS011;10525;50.154;8.198;2022-07-23T01:00:54;9.23;;;6.75;;
20727;SDS011;10525;50.154;8.198;2022-07-23T01:03:20;8.43;;;6.53;;
20727;SDS011;10525;50.154;8.198;2022-07-23T01:05:48;7.55;;;5.93;;
20727;SDS011;10525;50.154;8.198;2022-07-23T01:08:15;7.63;;;6.70;;
20727;SDS011;10525;50.154;8.198;2022-07-23T01:10:42;10.43;;;6.55;;
20727;SDS011;10525;50.154;8.198;2022-07-23T01:13:11;6.95;;;6.30;;
20727;SDS011;10525;50.154;8.198;2022-07-23T01:15:38;7.38;;;6.68;;
20727;SDS011;10525;50.154;8.198;2022-07-23T01:18:06;9.43;;;6.80;;
20727;SDS011;10525;50.154;8.198;2022-07-23T01:20:33;8.27;;;6.80;;
20727;SDS011;10525;50.154;8.198;2022-07-23T01:23:02;12.00;;;7.32;;
20727;SDS011;10525;50.154;8.198;2022-07-23T01:25:29;7.30;;;6.55;;
20727;SDS011;10525;50.154;8.198;2022-07-23T01:27:56;7.55;;;6.60;;
20727;SDS011;10525;50.154;8.198;2022-07-23T01:30:23;7.88;;;6.82;;
20727;SDS011;10525;50.154;8.198;2022-07-23T01:32:50;7.97;;;6.65;;
20727;SDS011;10525;50.154;8.198;2022-07-23T01:35:17;8.48;;;6.60;;
20727;SDS011;10525;50.154;8.198;2022-07-23T01:37:44;11.63;;;8.15;;
20727;SDS011;10525;50.154;8.198;2022-07-23T01:40:12;9.20;;;6.43;;
20727;SDS011;10525;50.154;8.198;2022-07-23T01:42:39;8.60;;;7.70;;
20727;SDS011;10525;50.154;8.198;2022-07-23T01:45:06;11.57;;;7.88;;
20727;SDS011;10525;50.154;8.198;2022-07-23T01:47:34;11.95;;;7.35;;
20727;SDS011;10525;50.154;8.198;2022-07-23T01:50:00;7.80;;;7.07;;
20727;SDS011;10525;50.154;8.198;2022-07-23T01:52:27;10.45;;;7.25;;
20727;SDS011;10525;50.154;8.198;2022-07-23T01:54:54;11.43;;;7.80;;
20727;SDS011;10525;50.154;8.198;2022-07-23T01:57:23;10.25;;;7.68;;
20727;SDS011;10525;50.154;8.198;2022-07-23T01:59:49;12.35;;;8.07;;
20727;SDS011;10525;50.154;8.198;2022-07-23T02:02:16;12.85;;;9.05;;
20727;SDS011;10525;50.154;8.198;2022-07-23T02:04:43;9.35;;;8.00;;
20727;SDS011;10525;50.154;8.198;2022-07-23T02:07:10;10.23;;;7.68;;
20727;SDS011;10525;50.154;8.198;2022-07-23T02:13:01;12.30;;;8.00;;
20727;SDS011;10525;50.154;8.198;2022-07-23T02:15:28;12.73;;;8.77;;
20727;SDS011;10525;50.154;8.198;2022-07-23T02:17:55;13.77;;;8.65;;
20727;SDS011;10525;50.154;8.198;2022-07-23T02:20:22;11.10;;;8.88;;
20727;SDS011;10525;50.154;8.198;2022-07-23T02:22:48;13.75;;;8.85;;
20727;SDS011;10525;50.154;8.198;2022-07-23T02:25:15;11.93;;;9.30;;
20727;SDS011;10525;50.154;8.198;2022-07-23T02:27:42;15.10;;;9.32;;
20727;SDS011;10525;50.154;8.198;2022-07-23T02:30:10;15.80;;;9.40;;
20727;SDS011;10525;50.154;8.198;2022-07-23T02:32:38;12.13;;;9.07;;
20727;SDS011;10525;50.154;8.198;2022-07-23T02:35:06;16.15;;;9.52;;
20727;SDS011;10525;50.154;8.198;2022-07-23T02:37:33;21.48;;;10.48;;
20727;SDS011;10525;50.154;8.198;2022-07-23T02:40:00;12.57;;;9.35;;
20727;SDS011;10525;50.154;8.198;2022-07-23T02:42:26;15.27;;;10.43;;
20727;SDS011;10525;50.154;8.198;2022-07-23T02:44:53;18.77;;;10.18;;
20727;SDS011;10525;50.154;8.198;2022-07-23T02:47:21;12.20;;;9.15;;
20727;SDS011;10525;50.154;8.198;2022-07-23T02:49:48;17.77;;;10.07;;
20727;SDS011;10525;50.154;8.198;2022-07-23T02:52:14;15.68;;;9.25;;
20727;SDS011;10525;50.154;8.198;2022-07-23T02:54:41;14.45;;;10.45;;
20727;SDS011;10525;50.154;8.198;2022-07-23T02:57:08;13.23;;;9.05;;
20727;SDS011;10525;50.154;8.198;2022-07-23T02:59:34;16.40;;;9.90;;
20727;SDS011;10525;50.154;8.198;2022-07-23T03:02:01;17.30;;;9.55;;
20727;SDS011;10525;50.154;8.198;2022-07-23T03:04:29;14.65;;;9.23;;
20727;SDS011;10525;50.154;8.198;2022-07-23T03:06:56;13.93;;;10.15;;
20727;SDS011;10525;50.154;8.198;2022-07-23T03:09:22;14.43;;;9.70;;
20727;SDS011;10525;50.154;8.198;2022-07-23T03:11:49;18.23;;;10.35;;
20727;SDS011;10525;50.154;8.198;2022-07-23T03:14:16;15.50;;;10.65;;
20727;SDS011;10525;50.154;8.198;2022-07-23T03:16:42;16.38;;;10.52;;
20727;SDS011;10525;50.154;8.198;2022-07-23T03:19:09;14.30;;;10.60;;
20727;SDS011;10525;50.154;8.198;2022-07-23T03:21:37;15.60;;;10.25;;
20727;SDS011;10525;50.154;8.198;2022-07-23T03:24:06;22.42;;;10.75;;
20727;SDS011;10525;50.154;8.198;2022-07-23T03:26:33;18.08;;;10.63;;
20727;SDS011;10525;50.154;8.198;2022-07-23T03:28:59;13.45;;;9.80;;
20727;SDS011;10525;50.154;8.198;2022-07-23T03:31:28;18.75;;;10.50;;
20727;SDS011;10525;50.154;8.198;2022-07-23T03:33:55;15.13;;;10.13;;
20727;SDS011;10525;50.154;8.198;2022-07-23T03:36:21;13.02;;;10.07;;
20727;SDS011;10525;50.154;8.198;2022-07-23T03:38:49;15.10;;;10.73;;
20727;SDS011;10525;50.154;8.198;2022-07-23T03:41:16;19.90;;;10.57;;
20727;SDS011;10525;50.154;8.198;2022-07-23T03:43:43;13.77;;;9.75;;
20727;SDS011;10525;50.154;8.198;2022-07-23T03:46:10;17.08;;;10.88;;
20727;SDS011;10525;50.154;8.198;2022-07-23T03:48:36;18.92;;;11.20;;
20727;SDS011;10525;50.154;8.198;2022-07-23T03:51:03;20.80;;;12.18;;
20727;SDS011;10525;50.154;8.198;2022-07-23T03:53:30;23.30;;;12.13;;
20727;SDS011;10525;50.154;8.198;2022-07-23T03:55:58;26.30;;;12.00;;
20727;SDS011;10525;50.154;8.198;2022-07-23T03:58:25;16.88;;;11.60;;
20727;SDS011;10525;50.154;8.198;2022-07-23T04:00:52;19.55;;;12.20;;
20727;SDS011;10525;50.154;8.198;2022-07-23T04:03:18;21.00;;;12.68;;
20727;SDS011;10525;50.154;8.198;2022-07-23T04:05:45;21.48;;;12.27;;
20727;SDS011;10525;50.154;8.198;2022-07-23T04:08:12;22.48;;;12.77;;
20727;SDS011;10525;50.154;8.198;2022-07-23T04:10:39;22.90;;;13.43;;
20727;SDS011;10525;50.154;8.198;2022-07-23T04:13:06;23.83;;;12.95;;
20727;SDS011;10525;50.154;8.198;2022-07-23T04:15:33;23.27;;;12.23;;
20727;SDS011;10525;50.154;8.198;2022-07-23T04:18:00;18.42;;;12.38;;
20727;SDS011;10525;50.154;8.198;2022-07-23T04:20:26;24.23;;;12.70;;
20727;SDS011;10525;50.154;8.198;2022-07-23T04:22:53;19.00;;;12.00;;
20727;SDS011;10525;50.154;8.198;2022-07-23T04:25:20;20.13;;;12.07;;
20727;SDS011;10525;50.154;8.198;2022-07-23T04:27:46;22.02;;;11.55;;
20727;SDS011;10525;50.154;8.198;2022-07-23T04:30:14;21.30;;;12.60;;
20727;SDS011;10525;50.154;8.198;2022-07-23T04:32:41;18.73;;;11.20;;
20727;SDS011;10525;50.154;8.198;2022-07-23T04:35:08;18.08;;;11.55;;
20727;SDS011;10525;50.154;8.198;2022-07-23T04:37:34;20.27;;;12.18;;
20727;SDS011;10525;50.154;8.198;2022-07-23T04:40:01;21.38;;;12.77;;
20727;SDS011;10525;50.154;8.198;2022-07-23T04:42:28;21.25;;;12.98;;
20727;SDS011;10525;50.154;8.198;2022-07-23T04:44:55;22.33;;;13.35;;
20727;SDS011;10525;50.154;8.198;2022-07-23T04:47:23;21.23;;;13.43;;
20727;SDS011;10525;50.154;8.198;2022-07-23T04:49:50;24.63;;;13.77;;
20727;SDS011;10525;50.154;8.198;2022-07-23T04:52:16;21.20;;;12.52;;
20727;SDS011;10525;50.154;8.198;2022-07-23T04:54:43;22.73;;;13.80;;
20727;SDS011;10525;50.154;8.198;2022-07-23T04:57:10;19.42;;;12.57;;
20727;SDS011;10525;50.154;8.198;2022-07-23T04:59:36;19.48;;;13.07;;
20727;SDS011;10525;50.154;8.198;2022-07-23T05:02:03;20.63;;;11.95;;
20727;SDS011;10525;50.154;8.198;2022-07-23T05:04:31;18.02;;;12.07;;
20727;SDS011;10525;50.154;8.198;2022-07-23T05:06:58;22.25;;;11.65;;
20727;SDS011;10525;50.154;8.198;2022-07-23T05:09:25;22.55;;;13.18;;
20727;SDS011;10525;50.154;8.198;2022-07-23T05:11:52;20.35;;;12.40;;
20727;SDS011;10525;50.154;8.198;2022-07-23T05:14:18;21.88;;;12.98;;
20727;SDS011;10525;50.154;8.198;2022-07-23T05:16:45;17.77;;;12.43;;
20727;SDS011;10525;50.154;8.198;2022-07-23T05:19:12;19.00;;;13.10;;
20727;SDS011;10525;50.154;8.198;2022-07-23T05:21:40;17.65;;;11.80;;
20727;SDS011;10525;50.154;8.198;2022-07-23T05:24:06;20.40;;;12.05;;
20727;SDS011;10525;50.154;8.198;2022-07-23T05:26:33;20.02;;;12.43;;
20727;SDS011;10525;50.154;8.198;2022-07-23T05:29:00;24.55;;;12.68;;
20727;SDS011;10525;50.154;8.198;2022-07-23T05:31:26;20.48;;;11.73;;
20727;SDS011;10525;50.154;8.198;2022-07-23T05:33:53;19.30;;;11.40;;
20727;SDS011;10525;50.154;8.198;2022-07-23T05:36:20;17.42;;;11.50;;
20727;SDS011;10525;50.154;8.198;2022-07-23T05:38:48;17.02;;;11.35;;
20727;SDS011;10525;50.154;8.198;2022-07-23T05:41:15;14.25;;;10.65;;
20727;SDS011;10525;50.154;8.198;2022-07-23T05:43:41;17.25;;;11.13;;
20727;SDS011;10525;50.154;8.198;2022-07-23T05:46:08;16.27;;;10.93;;
20727;SDS011;10525;50.154;8.198;2022-07-23T05:48:35;14.65;;;10.15;;
20727;SDS011;10525;50.154;8.198;2022-07-23T05:51:02;13.68;;;10.70;;
20727;SDS011;10525;50.154;8.198;2022-07-23T05:53:31;14.68;;;10.20;;
20727;SDS011;10525;50.154;8.198;2022-07-23T05:55:59;13.88;;;10.48;;
20727;SDS011;10525;50.154;8.198;2022-07-23T05:58:26;14.00;;;9.50;;
20727;SDS011;10525;50.154;8.198;2022-07-23T06:00:52;12.82;;;9.43;;
20727;SDS011;10525;50.154;8.198;2022-07-23T06:03:19;13.45;;;9.70;;
20727;SDS011;10525;50.154;8.198;2022-07-23T06:05:46;13.73;;;9.13;;
20727;SDS011;10525;50.154;8.198;2022-07-23T06:08:12;13.57;;;8.80;;
20727;SDS011;10525;50.154;8.198;2022-07-23T06:10:39;15.43;;;9.93;;
20727;SDS011;10525;50.154;8.198;2022-07-23T06:13:07;11.10;;;9.45;;
20727;SDS011;10525;50.154;8.198;2022-07-23T06:15:34;13.95;;;9.15;;
20727;SDS011;10525;50.154;8.198;2022-07-23T06:18:01;12.20;;;8.02;;
20727;SDS011;10525;50.154;8.198;2022-07-23T06:20:28;14.77;;;7.72;;
20727;SDS011;10525;50.154;8.198;2022-07-23T06:22:54;13.00;;;8.07;;
20727;SDS011;10525;50.154;8.198;2022-07-23T06:25:21;11.52;;;7.40;;
20727;SDS011;10525;50.154;8.198;2022-07-23T06:27:48;10.70;;;7.43;;
20727;SDS011;10525;50.154;8.198;2022-07-23T06:30:16;10.90;;;7.35;;
20727;SDS011;10525;50.154;8.198;2022-07-23T06:32:43;8.45;;;7.15;;
20727;SDS011;10525;50.154;8.198;2022-07-23T06:35:10;7.70;;;6.72;;
20727;SDS011;10525;50.154;8.198;2022-07-23T06:37:37;9.18;;;6.95;;
20727;SDS011;10525;50.154;8.198;2022-07-23T06:40:04;8.80;;;6.35;;
20727;SDS011;10525;50.154;8.198;2022-07-23T06:42:31;6.43;;;5.78;;
20727;SDS011;10525;50.154;8.198;2022-07-23T06:44:58;8.32;;;5.78;;
20727;SDS011;10525;50.154;8.198;2022-07-23T06:47:26;7.18;;;5.75;;
20727;SDS011;10525;50.154;8.198;2022-07-23T06:49:53;5.97;;;5.47;;
20727;SDS011;10525;50.154;8.198;2022-07-23T06:52:21;6.70;;;5.15;;
20727;SDS011;10525;50.154;8.198;2022-07-23T06:54:47;6.65;;;5.32;;
20727;SDS011;10525;50.154;8.198;2022-07-23T06:57:14;8.43;;;5.60;;
20727;SDS011;10525;50.154;8.198;2022-07-23T06:59:41;6.85;;;5.63;;
20727;SDS011;10525;50.154;8.198;2022-07-23T07:02:08;6.93;;;4.75;;
20727;SDS011;10525;50.154;8.198;2022-07-23T07:04:36;6.40;;;5.55;;
20727;SDS011;10525;50.154;8.198;2022-07-23T07:07:03;4.93;;;4.63;;
20727;SDS011;10525;50.154;8.198;2022-07-23T07:11:57;8.40;;;4.88;;
20727;SDS011;10525;50.154;8.198;2022-07-23T07:14:24;5.30;;;4.80;;
20727;SDS011;10525;50.154;8.198;2022-07-23T07:16:50;5.13;;;4.65;;
20727;SDS011;10525;50.154;8.198;2022-07-23T07:19:17;5.30;;;4.50;;
20727;SDS011;10525;50.154;8.198;2022-07-23T07:21:45;4.63;;;4.25;;
20727;SDS011;10525;50.154;8.198;2022-07-23T07:24:12;8.43;;;4.35;;
20727;SDS011;10525;50.154;8.198;2022-07-23T07:26:39;5.82;;;4.45;;
20727;SDS011;10525;50.154;8.198;2022-07-23T07:29:05;4.88;;;4.47;;
20727;SDS011;10525;50.154;8.198;2022-07-23T07:31:32;4.95;;;4.55;;
20727;SDS011;10525;50.154;8.198;2022-07-23T07:33:59;4.60;;;4.20;;
20727;SDS011;10525;50.154;8.198;2022-07-23T07:36:25;4.88;;;4.43;;
20727;SDS011;10525;50.154;8.198;2022-07-23T07:38:54;4.40;;;4.10;;
20727;SDS011;10525;50.154;8.198;2022-07-23T07:41:20;4.65;;;4.13;;
20727;SDS011;10525;50.154;8.198;2022-07-23T07:43:49;4.38;;;4.07;;
20727;SDS011;10525;50.154;8.198;2022-07-23T07:46:15;4.78;;;4.22;;
20727;SDS011;10525;50.154;8.198;2022-07-23T07:48:42;4.93;;;4.43;;
20727;SDS011;10525;50.154;8.198;2022-07-23T07:51:09;4.57;;;3.95;;
20727;SDS011;10525;50.154;8.198;2022-07-23T07:53:35;4.78;;;4.35;;
20727;SDS011;10525;50.154;8.198;2022-07-23T07:56:04;5.38;;;4.97;;
20727;SDS011;10525;50.154;8.198;2022-07-23T07:58:31;5.10;;;4.68;;
20727;SDS011;10525;50.154;8.198;2022-07-23T08:00:57;4.90;;;4.40;;
20727;SDS011;10525;50.154;8.198;2022-07-23T08:03:25;7.93;;;5.03;;
20727;SDS011;10525;50.154;8.198;2022-07-23T08:05:52;7.47;;;4.57;;
20727;SDS011;10525;50.154;8.198;2022-07-23T08:08:18;6.47;;;4.15;;
20727;SDS011;10525;50.154;8.198;2022-07-23T08:10:45;5.45;;;4.95;;
20727;SDS011;10525;50.154;8.198;2022-07-23T08:13:13;5.25;;;4.85;;
20727;SDS011;10525;50.154;8.198;2022-07-23T08:15:42;5.00;;;4.60;;
20727;SDS011;10525;50.154;8.198;2022-07-23T08:18:09;5.05;;;4.65;;
20727;SDS011;10525;50.154;8.198;2022-07-23T08:20:36;5.22;;;4.90;;
20727;SDS011;10525;50.154;8.198;2022-07-23T08:23:03;5.35;;;4.95;;
20727;SDS011;10525;50.154;8.198;2022-07-23T08:25:32;5.68;;;5.22;;
20727;SDS011;10525;50.154;8.198;2022-07-23T08:28:00;5.25;;;4.93;;
20727;SDS011;10525;50.154;8.198;2022-07-23T08:30:30;5.45;;;5.00;;
20727;SDS011;10525;50.154;8.198;2022-07-23T08:32:58;5.55;;;5.05;;
20727;SDS011;10525;50.154;8.198;2022-07-23T08:35:29;4.82;;;4.47;;
20727;SDS011;10525;50.154;8.198;2022-07-23T08:37:57;4.70;;;4.38;;
20727;SDS011;10525;50.154;8.198;2022-07-23T08:40:25;5.45;;;4.95;;
20727;SDS011;10525;50.154;8.198;2022-07-23T08:42:53;5.47;;;4.97;;
20727;SDS011;10525;50.154;8.198;2022-07-23T08:45:20;5.75;;;4.70;;
20727;SDS011;10525;50.154;8.198;2022-07-23T08:47:51;8.70;;;5.70;;
20727;SDS011;10525;50.154;8.198;2022-07-23T08:50:18;7.85;;;5.63;;
20727;SDS011;10525;50.154;8.198;2022-07-23T08:52:45;5.97;;;5.05;;
20727;SDS011;10525;50.154;8.198;2022-07-23T08:55:13;12.40;;;6.00;;
20727;SDS011;10525;50.154;8.198;2022-07-23T08:57:42;7.30;;;4.97;;
20727;SDS011;10525;50.154;8.198;2022-07-23T09:00:09;5.93;;;5.00;;
20727;SDS011;10525;50.154;8.198;2022-07-23T09:02:38;5.50;;;5.00;;
20727;SDS011;10525;50.154;8.198;2022-07-23T09:05:07;10.75;;;5.72;;
20727;SDS011;10525;50.154;8.198;2022-07-23T09:07:35;6.00;;;5.07;;
20727;SDS011;10525;50.154;8.198;2022-07-23T09:10:06;4.97;;;4.57;;
20727;SDS011;10525;50.154;8.198;2022-07-23T09:12:35;4.88;;;4.28;;
20727;SDS011;10525;50.154;8.198;2022-07-23T09:15:06;5.22;;;4.22;;
20727;SDS011;10525;50.154;8.198;2022-07-23T09:17:37;4.20;;;3.90;;
20727;SDS011;10525;50.154;8.198;2022-07-23T09:20:11;4.72;;;4.47;;
20727;SDS011;10525;50.154;8.198;2022-07-23T09:22:39;4.30;;;4.10;;
20727;SDS011;10525;50.154;8.198;2022-07-23T09:25:11;4.00;;;3.80;;
20727;SDS011;10525;50.154;8.198;2022-07-23T09:27:47;6.20;;;4.60;;
20727;SDS011;10525;50.154;8.198;2022-07-23T09:30:19;4.68;;;3.85;;
20727;SDS011;10525;50.154;8.198;2022-07-23T09:35:46;4.85;;;4.45;;
20727;SDS011;10525;50.154;8.198;2022-07-23T09:38:15;5.45;;;4.50;;
20727;SDS011;10525;50.154;8.198;2022-07-23T09:40:43;5.47;;;4.32;;
20727;SDS011;10525;50.154;8.198;2022-07-23T09:43:10;5.00;;;4.60;;
20727;SDS011;10525;50.154;8.198;2022-07-23T09:45:37;4.93;;;4.43;;
20727;SDS011;10525;50.154;8.198;2022-07-23T09:48:15;5.93;;;4.35;;
20727;SDS011;10525;50.154;8.198;2022-07-23T09:50:43;5.35;;;4.88;;
20727;SDS011;10525;50.154;8.198;2022-07-23T09:53:11;4.45;;;3.92;;
20727;SDS011;10525;50.154;8.198;2022-07-23T09:55:50;4.72;;;4.45;;
20727;SDS011;10525;50.154;8.198;2022-07-23T09:58:19;5.15;;;3.97;;
20727;SDS011;10525;50.154;8.198;2022-07-23T10:00:48;4.50;;;4.15;;
20727;SDS011;10525;50.154;8.198;2022-07-23T10:03:16;4.63;;;4.07;;
20727;SDS011;10525;50.154;8.198;2022-07-23T10:05:45;4.25;;;3.95;;
20727;SDS011;10525;50.154;8.198;2022-07-23T10:08:16;4.30;;;4.05;;
20727;SDS011;10525;50.154;8.198;2022-07-23T10:10:48;4.72;;;4.38;;
20727;SDS011;10525;50.154;8.198;2022-07-23T10:13:17;6.45;;;4.15;;
20727;SDS011;10525;50.154;8.198;2022-07-23T10:16:02;5.03;;;4.45;;
20727;SDS011;10525;50.154;8.198;2022-07-23T10:18:29;6.70;;;4.07;;
20727;SDS011;10525;50.154;8.198;2022-07-23T10:20:56;4.45;;;3.95;;
20727;SDS011;10525;50.154;8.198;2022-07-23T10:23:27;4.88;;;4.32;;
20727;SDS011;10525;50.154;8.198;2022-07-23T10:25:59;5.38;;;4.65;;
20727;SDS011;10525;50.154;8.198;2022-07-23T10:28:43;4.50;;;4.10;;
20727;SDS011;10525;50.154;8.198;2022-07-23T10:31:27;4.68;;;4.35;;
20727;SDS011;10525;50.154;8.198;2022-07-23T10:34:02;4.70;;;4.22;;
20727;SDS011;10525;50.154;8.198;2022-07-23T10:36:39;5.50;;;4.72;;
20727;SDS011;10525;50.154;8.198;2022-07-23T10:39:13;4.57;;;4.28;;
20727;SDS011;10525;50.154;8.198;2022-07-23T10:41:46;4.47;;;4.28;;
20727;SDS011;10525;50.154;8.198;2022-07-23T10:44:13;4.70;;;4.47;;
20727;SDS011;10525;50.154;8.198;2022-07-23T10:46:54;4.28;;;3.88;;
20727;SDS011;10525;50.154;8.198;2022-07-23T10:49:29;5.13;;;4.63;;
20727;SDS011;10525;50.154;8.198;2022-07-23T10:52:15;4.43;;;4.13;;
20727;SDS011;10525;50.154;8.198;2022-07-23T10:54:48;4.35;;;4.15;;
20727;SDS011;10525;50.154;8.198;2022-07-23T10:57:16;4.88;;;4.50;;
20727;SDS011;10525;50.154;8.198;2022-07-23T11:02:38;6.88;;;4.45;;
20727;SDS011;10525;50.154;8.198;2022-07-23T11:05:07;6.07;;;4.68;;
20727;SDS011;10525;50.154;8.198;2022-07-23T11:07:35;6.65;;;5.78;;
20727;SDS011;10525;50.154;8.198;2022-07-23T11:10:04;5.32;;;4.97;;
20727;SDS011;10525;50.154;8.198;2022-07-23T11:12:32;5.10;;;4.70;;
20727;SDS011;10525;50.154;8.198;2022-07-23T11:15:01;5.00;;;4.50;;
20727;SDS011;10525;50.154;8.198;2022-07-23T11:17:30;6.20;;;5.70;;
20727;SDS011;10525;50.154;8.198;2022-07-23T11:20:20;5.05;;;4.65;;
20727;SDS011;10525;50.154;8.198;2022-07-23T11:22:52;4.75;;;4.55;;
20727;SDS011;10525;50.154;8.198;2022-07-23T11:25:35;4.68;;;4.47;;
20727;SDS011;10525;50.154;8.198;2022-07-23T11:28:09;4.97;;;4.68;;
20727;SDS011;10525;50.154;8.198;2022-07-23T11:30:40;7.13;;;5.35;;
20727;SDS011;10525;50.154;8.198;2022-07-23T11:33:21;4.82;;;4.35;;
20727;SDS011;10525;50.154;8.198;2022-07-23T11:35:49;5.35;;;4.90;;
20727;SDS011;10525;50.154;8.198;2022-07-23T11:38:27;5.78;;;5.07;;
20727;SDS011;10525;50.154;8.198;2022-07-23T11:40:58;5.60;;;5.25;;
20727;SDS011;10525;50.154;8.198;2022-07-23T11:43:25;9.43;;;5.20;;
20727;SDS011;10525;50.154;8.198;2022-07-23T11:45:53;5.10;;;4.80;;
20727;SDS011;10525;50.154;8.198;2022-07-23T11:48:23;7.65;;;5.43;;
20727;SDS011;10525;50.154;8.198;2022-07-23T11:50:51;5.80;;;4.90;;
20727;SDS011;10525;50.154;8.198;2022-07-23T11:53:22;5.30;;;4.80;;
20727;SDS011;10525;50.154;8.198;2022-07-23T11:55:49;5.97;;;5.35;;
20727;SDS011;10525;50.154;8.198;2022-07-23T11:58:18;5.57;;;5.05;;
20727;SDS011;10525;50.154;8.198;2022-07-23T12:00:44;7.97;;;4.93;;
20727;SDS011;10525;50.154;8.198;2022-07-23T12:03:11;5.55;;;5.07;;
20727;SDS011;10525;50.154;8.198;2022-07-23T12:05:38;5.68;;;5.28;;
20727;SDS011;10525;50.154;8.198;2022-07-23T12:08:06;5.10;;;4.70;;
20727;SDS011;10525;50.154;8.198;2022-07-23T12:10:35;6.68;;;4.60;;
20727;SDS011;10525;50.154;8.198;2022-07-23T12:13:04;4.70;;;4.40;;
20727;SDS011;10525;50.154;8.198;2022-07-23T12:15:34;5.47;;;4.97;;
20727;SDS011;10525;50.154;8.198;2022-07-23T12:18:04;5.50;;;5.10;;
20727;SDS011;10525;50.154;8.198;2022-07-23T12:20:35;11.18;;;5.75;;
20727;SDS011;10525;50.154;8.198;2022-07-23T12:23:10;5.25;;;4.85;;
20727;SDS011;10525;50.154;8.198;2022-07-23T12:25:39;5.38;;;4.88;;
20727;SDS011;10525;50.154;8.198;2022-07-23T12:28:12;7.38;;;5.03;;
20727;SDS011;10525;50.154;8.198;2022-07-23T12:30:42;7.18;;;4.95;;
20727;SDS011;10525;50.154;8.198;2022-07-23T12:33:11;5.40;;;5.00;;
20727;SDS011;10525;50.154;8.198;2022-07-23T12:35:40;5.28;;;4.88;;
20727;SDS011;10525;50.154;8.198;2022-07-23T12:38:09;5.43;;;4.97;;
20727;SDS011;10525;50.154;8.198;2022-07-23T12:40:42;5.05;;;4.65;;
20727;SDS011;10525;50.154;8.198;2022-07-23T12:43:11;4.95;;;4.65;;
20727;SDS011;10525;50.154;8.198;2022-07-23T12:45:46;5.35;;;4.75;;
20727;SDS011;10525;50.154;8.198;2022-07-23T12:48:18;4.95;;;4.75;;
20727;SDS011;10525;50.154;8.198;2022-07-23T12:50:53;5.32;;;4.90;;
20727;SDS011;10525;50.154;8.198;2022-07-23T12:53:22;5.00;;;4.70;;
20727;SDS011;10525;50.154;8.198;2022-07-23T12:55:56;4.68;;;4.47;;
20727;SDS011;10525;50.154;8.198;2022-07-23T12:58:24;5.32;;;4.93;;
20727;SDS011;10525;50.154;8.198;2022-07-23T13:00:57;5.80;;;5.18;;
20727;SDS011;10525;50.154;8.198;2022-07-23T13:03:27;5.10;;;4.80;;
20727;SDS011;10525;50.154;8.198;2022-07-23T13:05:56;7.55;;;5.38;;
20727;SDS011;10525;50.154;8.198;2022-07-23T13:08:24;5.35;;;4.97;;
20727;SDS011;10525;50.154;8.198;2022-07-23T13:10:51;4.82;;;4.50;;
20727;SDS011;10525;50.154;8.198;2022-07-23T13:13:22;4.95;;;4.63;;
20727;SDS011;10525;50.154;8.198;2022-07-23T13:15:49;5.47;;;4.97;;
20727;SDS011;10525;50.154;8.198;2022-07-23T13:18:18;5.25;;;4.90;;
20727;SDS011;10525;50.154;8.198;2022-07-23T13:20:46;5.18;;;4.75;;
20727;SDS011;10525;50.154;8.198;2022-07-23T13:23:14;5.07;;;4.68;;
20727;SDS011;10525;50.154;8.198;2022-07-23T13:25:41;9.50;;;4.82;;
20727;SDS011;10525;50.154;8.198;2022-07-23T13:28:08;5.18;;;4.72;;
20727;SDS011;10525;50.154;8.198;2022-07-23T13:30:35;5.57;;;4.90;;
20727;SDS011;10525;50.154;8.198;2022-07-23T13:33:02;5.07;;;4.43;;
20727;SDS011;10525;50.154;8.198;2022-07-23T13:35:31;5.22;;;4.70;;
20727;SDS011;10525;50.154;8.198;2022-07-23T13:37:58;4.93;;;4.53;;
20727;SDS011;10525;50.154;8.198;2022-07-23T13:40:25;5.00;;;4.53;;
20727;SDS011;10525;50.154;8.198;2022-07-23T13:42:51;5.10;;;4.80;;
20727;SDS011;10525;50.154;8.198;2022-07-23T13:45:18;4.78;;;4.47;;
20727;SDS011;10525;50.154;8.198;2022-07-23T13:47:45;5.30;;;4.80;;
20727;SDS011;10525;50.154;8.198;2022-07-23T13:50:12;4.97;;;4.57;;
20727;SDS011;10525;50.154;8.198;2022-07-23T13:52:42;5.05;;;4.55;;
20727;SDS011;10525;50.154;8.198;2022-07-23T13:55:09;5.22;;;4.82;;
20727;SDS011;10525;50.154;8.198;2022-07-23T13:57:36;5.10;;;4.63;;
20727;SDS011;10525;50.154;8.198;2022-07-23T14:00:04;4.53;;;4.15;;
20727;SDS011;10525;50.154;8.198;2022-07-23T14:02:34;4.88;;;4.43;;
20727;SDS011;10525;50.154;8.198;2022-07-23T14:05:03;4.70;;;4.30;;
20727;SDS011;10525;50.154;8.198;2022-07-23T14:07:32;4.20;;;4.00;;
20727;SDS011;10525;50.154;8.198;2022-07-23T14:10:02;4.70;;;4.50;;
20727;SDS011;10525;50.154;8.198;2022-07-23T14:12:29;4.97;;;4.22;;
20727;SDS011;10525;50.154;8.198;2022-07-23T14:14:57;4.20;;;3.80;;
20727;SDS011;10525;50.154;8.198;2022-07-23T14:17:24;8.02;;;4.53;;
20727;SDS011;10525;50.154;8.198;2022-07-23T14:19:51;4.38;;;4.07;;
20727;SDS011;10525;50.154;8.198;2022-07-23T14:22:18;5.15;;;4.20;;
20727;SDS011;10525;50.154;8.198;2022-07-23T14:24:44;4.38;;;4.18;;
20727;SDS011;10525;50.154;8.198;2022-07-23T14:27:12;6.82;;;4.18;;
20727;SDS011;10525;50.154;8.198;2022-07-23T14:29:39;7.07;;;4.18;;
20727;SDS011;10525;50.154;8.198;2022-07-23T14:32:06;4.43;;;4.13;;
20727;SDS011;10525;50.154;8.198;2022-07-23T14:34:33;3.70;;;3.50;;
20727;SDS011;10525;50.154;8.198;2022-07-23T14:36:59;5.30;;;3.83;;
20727;SDS011;10525;50.154;8.198;2022-07-23T14:39:27;3.88;;;3.67;;
20727;SDS011;10525;50.154;8.198;2022-07-23T14:41:53;4.00;;;3.80;;
20727;SDS011;10525;50.154;8.198;2022-07-23T14:44:22;3.40;;;3.22;;
20727;SDS011;10525;50.154;8.198;2022-07-23T14:46:48;6.40;;;3.65;;
20727;SDS011;10525;50.154;8.198;2022-07-23T14:49:15;6.13;;;5.03;;
20727;SDS011;10525;50.154;8.198;2022-07-23T14:51:42;4.45;;;4.03;;
20727;SDS011;10525;50.154;8.198;2022-07-23T14:54:09;3.72;;;3.50;;
20727;SDS011;10525;50.154;8.198;2022-07-23T14:56:36;3.72;;;3.50;;
20727;SDS011;10525;50.154;8.198;2022-07-23T14:59:02;4.45;;;4.13;;